createdAt,value
2018-05-07T00:01:17.178Z,4.37
2018-05-07T00:03:44.682Z,4.23
2018-05-07T00:06:12.181Z,4.60
2018-05-07T00:08:40.043Z,4.50
2018-05-07T00:11:08.328Z,4.50
2018-05-07T00:13:35.792Z,4.33
2018-05-07T00:16:03.600Z,4.57
2018-05-07T00:18:31.132Z,4.60
2018-05-07T00:20:59.376Z,4.43
2018-05-07T00:23:27.150Z,4.30
2018-05-07T00:25:54.638Z,4.20
2018-05-07T00:28:22.122Z,4.33
2018-05-07T00:30:49.889Z,4.80
2018-05-07T00:33:17.450Z,5.00
2018-05-07T00:35:44.870Z,4.93
2018-05-07T00:38:13.407Z,5.10
2018-05-07T00:40:40.914Z,5.07
2018-05-07T00:43:08.484Z,5.20
2018-05-07T00:45:36.248Z,5.43
2018-05-07T00:48:04.105Z,5.40
2018-05-07T00:50:31.620Z,5.63
2018-05-07T00:52:59.782Z,5.30
2018-05-07T00:55:27.716Z,5.80
2018-05-07T00:57:55.195Z,5.13
2018-05-07T01:00:23.030Z,6.00
2018-05-07T01:02:50.526Z,5.43
2018-05-07T01:05:18.043Z,5.50
2018-05-07T01:07:45.914Z,5.47
2018-05-07T01:10:13.455Z,6.40
2018-05-07T01:12:41.724Z,5.83
2018-05-07T01:15:09.963Z,6.07
2018-05-07T01:17:37.457Z,6.33
2018-05-07T01:20:05.754Z,5.80
2018-05-07T01:22:33.518Z,6.60
2018-05-07T01:25:01.012Z,6.25
2018-05-07T01:27:28.487Z,6.40
2018-05-07T01:29:56.294Z,6.30
2018-05-07T01:32:23.780Z,6.22
2018-05-07T01:34:51.262Z,6.10
2018-05-07T01:37:19.065Z,6.20
2018-05-07T01:39:46.547Z,6.47
2018-05-07T01:42:14.030Z,6.80
2018-05-07T01:44:41.852Z,6.30
2018-05-07T01:47:09.338Z,6.68
2018-05-07T01:49:36.863Z,6.53
2018-05-07T01:52:05.389Z,6.77
2018-05-07T01:54:33.261Z,6.17
2018-05-07T01:57:00.732Z,7.20
2018-05-07T01:59:28.943Z,7.07
2018-05-07T02:01:56.820Z,6.87
2018-05-07T02:04:24.297Z,7.10
2018-05-07T02:06:52.072Z,7.20
2018-05-07T02:09:19.949Z,6.50
2018-05-07T02:11:47.492Z,6.60
2018-05-07T02:14:16.049Z,7.35
2018-05-07T02:16:43.543Z,7.78
2018-05-07T02:19:11.068Z,6.67
2018-05-07T02:21:39.230Z,7.47
2018-05-07T02:24:07.119Z,6.77
2018-05-07T02:26:34.594Z,7.25
2018-05-07T02:29:02.818Z,7.63
2018-05-07T02:31:31.054Z,8.13
2018-05-07T02:33:59.001Z,8.80
2018-05-07T02:36:26.823Z,8.18
2018-05-07T02:38:54.332Z,7.80
2018-05-07T02:41:21.815Z,8.10
2018-05-07T02:43:50.272Z,8.30
2018-05-07T02:46:17.742Z,8.20
2018-05-07T02:48:45.238Z,8.77
2018-05-07T02:51:13.458Z,8.98
2018-05-07T02:53:40.933Z,8.65
2018-05-07T02:56:08.427Z,8.63
2018-05-07T02:58:36.967Z,8.20
2018-05-07T03:01:04.491Z,8.10
2018-05-07T03:03:32.058Z,9.35
2018-05-07T03:05:59.819Z,8.65
2018-05-07T03:08:27.297Z,8.30
2018-05-07T03:10:54.799Z,8.80
2018-05-07T03:13:23.383Z,8.90
2018-05-07T03:15:51.631Z,7.63
2018-05-07T03:18:19.126Z,8.95
2018-05-07T03:20:47.034Z,8.85
2018-05-07T03:23:14.574Z,8.70
2018-05-07T03:25:42.099Z,8.70
2018-05-07T03:28:10.326Z,8.88
2018-05-07T03:30:37.861Z,7.97
2018-05-07T03:33:05.353Z,8.93
2018-05-07T03:35:33.112Z,8.32
2018-05-07T03:38:00.643Z,9.90
2018-05-07T03:40:28.181Z,9.38
2018-05-07T03:42:56.006Z,8.98
2018-05-07T03:45:23.500Z,8.98
2018-05-07T03:47:51.033Z,9.05
2018-05-07T03:50:18.886Z,10.05
2018-05-07T03:52:46.773Z,9.35
2018-05-07T03:55:14.720Z,8.90
2018-05-07T03:57:43.558Z,9.32
2018-05-07T04:00:11.447Z,8.93
2018-05-07T04:02:38.958Z,9.10
2018-05-07T04:05:07.465Z,9.80
2018-05-07T04:07:35.006Z,10.57
2018-05-07T04:10:02.887Z,10.27
2018-05-07T04:12:30.737Z,9.57
2018-05-07T04:14:58.254Z,9.88
2018-05-07T04:17:37.828Z,9.75
2018-05-07T04:20:17.741Z,10.35
2018-05-07T04:22:57.070Z,9.43
2018-05-07T04:25:24.577Z,9.70
2018-05-07T04:27:52.631Z,9.90
2018-05-07T04:30:20.365Z,9.60
2018-05-07T04:32:47.865Z,9.57
2018-05-07T04:35:15.734Z,9.85
2018-05-07T04:37:44.365Z,9.50
2018-05-07T04:40:11.971Z,9.50
2018-05-07T04:42:40.258Z,9.15
2018-05-07T04:45:08.122Z,9.32
2018-05-07T04:47:36.413Z,8.60
2018-05-07T04:50:03.907Z,10.17
2018-05-07T04:52:31.722Z,9.27
2018-05-07T04:54:59.199Z,9.00
2018-05-07T04:57:26.674Z,9.23
2018-05-07T04:59:54.450Z,8.75
2018-05-07T05:02:21.934Z,8.20
2018-05-07T05:04:49.482Z,9.80
2018-05-07T05:07:17.433Z,8.77
2018-05-07T05:09:45.690Z,8.88
2018-05-07T05:12:14.220Z,9.13
2018-05-07T05:14:41.715Z,8.33
2018-05-07T05:17:09.226Z,7.23
2018-05-07T05:19:37.550Z,7.50
2018-05-07T05:22:05.057Z,8.10
2018-05-07T05:24:32.586Z,7.60
2018-05-07T05:27:00.483Z,7.33
2018-05-07T05:29:28.819Z,8.23
2018-05-07T05:31:56.703Z,8.20
2018-05-07T05:34:24.177Z,7.23
2018-05-07T05:36:51.983Z,6.80
2018-05-07T05:39:19.967Z,7.83
2018-05-07T05:41:47.910Z,7.73
2018-05-07T05:44:16.367Z,7.37
2018-05-07T05:46:43.902Z,7.70
2018-05-07T05:49:12.015Z,7.40
2018-05-07T05:51:40.602Z,7.27
2018-05-07T05:54:08.854Z,7.33
2018-05-07T05:56:36.574Z,7.17
2018-05-07T05:59:04.340Z,7.43
2018-05-07T06:01:32.227Z,7.03
2018-05-07T06:03:59.781Z,7.10
2018-05-07T06:06:27.499Z,7.90
2018-05-07T06:08:55.832Z,7.87
2018-05-07T06:11:23.298Z,6.73
2018-05-07T06:13:51.056Z,7.30
2018-05-07T06:16:19.340Z,7.73
2018-05-07T06:18:46.818Z,7.20
2018-05-07T06:21:15.626Z,7.17
2018-05-07T06:23:42.927Z,7.47
2018-05-07T06:26:10.408Z,6.60
2018-05-07T06:28:38.302Z,6.50
2018-05-07T06:31:06.596Z,6.40
2018-05-07T06:33:34.062Z,6.53
2018-05-07T06:36:01.876Z,6.77
2018-05-07T06:38:29.357Z,6.30
2018-05-07T06:40:57.630Z,6.43
2018-05-07T06:43:25.121Z,5.83
2018-05-07T06:45:52.623Z,5.70
2018-05-07T06:48:20.106Z,5.53
2018-05-07T06:50:48.687Z,6.00
2018-05-07T06:53:16.184Z,5.50
2018-05-07T06:55:43.863Z,6.27
2018-05-07T06:58:11.699Z,5.10
2018-05-07T07:00:39.246Z,5.73
2018-05-07T07:03:06.741Z,5.60
2018-05-07T07:05:34.252Z,4.83
2018-05-07T07:08:01.742Z,5.23
2018-05-07T07:10:29.209Z,5.27
2018-05-07T07:12:57.026Z,4.90
2018-05-07T07:15:24.536Z,5.00
2018-05-07T07:17:52.052Z,4.60
2018-05-07T07:20:19.667Z,5.37
2018-05-07T07:22:47.150Z,4.70
2018-05-07T07:25:14.678Z,4.90
2018-05-07T07:27:42.165Z,4.47
2018-05-07T07:30:10.404Z,4.03
2018-05-07T07:32:37.903Z,4.77
2018-05-07T07:35:06.461Z,4.90
2018-05-07T07:37:33.938Z,5.20
2018-05-07T07:40:01.431Z,5.60
2018-05-07T07:42:29.214Z,5.60
2018-05-07T07:44:56.794Z,5.27
2018-05-07T07:47:24.270Z,5.20
2018-05-07T07:49:52.517Z,4.40
2018-05-07T07:52:20.552Z,5.40
2018-05-07T07:54:48.175Z,5.80
2018-05-07T07:57:16.836Z,4.73
2018-05-07T07:59:44.318Z,5.20
2018-05-07T08:02:12.690Z,5.00
2018-05-07T08:04:41.475Z,4.53
2018-05-07T08:07:09.084Z,4.60
2018-05-07T08:09:36.769Z,4.40
2018-05-07T08:12:04.389Z,5.07
2018-05-07T08:14:31.845Z,4.87
2018-05-07T08:16:59.434Z,4.13
2018-05-07T08:19:27.867Z,4.83
2018-05-07T08:21:56.102Z,4.40
2018-05-07T08:24:23.617Z,5.50
2018-05-07T08:26:51.393Z,4.20
2018-05-07T08:29:18.905Z,4.63
2018-05-07T08:31:46.397Z,4.53
2018-05-07T08:34:13.929Z,4.40
2018-05-07T08:36:42.352Z,4.33
2018-05-07T08:39:09.880Z,4.20
2018-05-07T08:41:37.370Z,4.80
2018-05-07T08:44:04.843Z,4.27
2018-05-07T08:46:33.761Z,4.70
2018-05-07T08:49:01.707Z,4.60
2018-05-07T08:51:29.198Z,4.77
2018-05-07T08:53:57.470Z,4.87
2018-05-07T08:56:24.948Z,4.87
2018-05-07T08:58:52.439Z,4.43
2018-05-07T09:01:20.285Z,4.63
2018-05-07T09:03:47.792Z,4.57
2018-05-07T09:06:16.156Z,5.23
2018-05-07T09:08:43.735Z,5.17
2018-05-07T09:11:11.618Z,4.80
2018-05-07T09:13:39.176Z,4.77
2018-05-07T09:16:06.691Z,5.33
2018-05-07T09:18:34.462Z,4.73
2018-05-07T09:21:02.079Z,4.70
2018-05-07T09:23:29.649Z,4.20
2018-05-07T09:25:57.548Z,3.77
2018-05-07T09:28:25.065Z,5.20
2018-05-07T09:30:52.605Z,4.03
2018-05-07T09:33:20.899Z,4.00
2018-05-07T09:35:48.389Z,4.33
2018-05-07T09:38:15.934Z,4.77
2018-05-07T09:40:43.725Z,5.40
2018-05-07T09:43:11.296Z,5.23
2018-05-07T09:45:38.926Z,4.77
2018-05-07T09:48:06.709Z,5.47
2018-05-07T09:50:34.251Z,5.50
2018-05-07T09:53:01.742Z,4.60
2018-05-07T09:55:29.554Z,4.67
2018-05-07T09:58:05.977Z,4.97
2018-05-07T10:00:37.269Z,4.77
2018-05-07T10:03:04.748Z,5.00
2018-05-07T10:05:32.226Z,5.23
2018-05-07T10:08:00.025Z,4.13
2018-05-07T10:10:28.301Z,3.60
2018-05-07T10:12:55.802Z,4.37
2018-05-07T10:15:23.730Z,4.67
2018-05-07T10:17:51.305Z,4.57
2018-05-07T10:20:18.865Z,3.90
2018-05-07T10:22:46.658Z,3.53
2018-05-07T10:25:14.198Z,3.67
2018-05-07T10:27:42.527Z,4.23
2018-05-07T10:30:10.802Z,3.20
2018-05-07T10:32:39.103Z,3.87
2018-05-07T10:35:06.600Z,4.20
2018-05-07T10:37:34.108Z,3.43
2018-05-07T10:40:01.601Z,4.00
2018-05-07T10:42:29.109Z,4.50
2018-05-07T10:44:57.033Z,3.60
2018-05-07T10:47:24.529Z,4.30
2018-05-07T10:49:52.906Z,4.17
2018-05-07T10:52:21.170Z,4.60
2018-05-07T10:54:48.972Z,4.03
2018-05-07T10:57:16.474Z,3.60
2018-05-07T10:59:44.219Z,2.73
2018-05-07T11:02:11.730Z,2.70
2018-05-07T11:04:39.994Z,2.87
2018-05-07T11:07:07.790Z,2.57
2018-05-07T11:09:35.317Z,2.80
2018-05-07T11:12:02.803Z,2.50
2018-05-07T11:14:30.282Z,2.60
2018-05-07T11:16:57.798Z,2.60
2018-05-07T11:19:26.075Z,2.13
2018-05-07T11:21:54.348Z,2.50
2018-05-07T11:24:22.657Z,2.60
2018-05-07T11:26:50.202Z,2.93
2018-05-07T11:29:18.735Z,2.30
2018-05-07T11:31:46.217Z,2.33
2018-05-07T11:34:13.691Z,2.50
2018-05-07T11:36:42.107Z,2.50
2018-05-07T11:39:09.667Z,1.70
2018-05-07T11:41:37.074Z,2.40
2018-05-07T11:44:05.325Z,3.07
2018-05-07T11:46:32.804Z,3.00
2018-05-07T11:49:00.269Z,2.67
2018-05-07T11:51:28.530Z,2.80
2018-05-07T11:53:56.028Z,2.53
2018-05-07T11:56:23.494Z,2.63
2018-05-07T11:58:51.006Z,2.43
2018-05-07T12:01:18.570Z,2.27
2018-05-07T12:03:46.854Z,2.60
2018-05-07T12:06:15.230Z,2.30
2018-05-07T12:08:43.478Z,2.30
2018-05-07T12:11:10.974Z,1.87
2018-05-07T12:13:38.478Z,1.90
2018-05-07T12:16:06.074Z,1.50
2018-05-07T12:18:33.497Z,1.73
2018-05-07T12:21:01.011Z,1.90
2018-05-07T12:23:28.540Z,2.20
2018-05-07T12:25:56.144Z,1.60
2018-05-07T12:28:23.627Z,1.80
2018-05-07T12:30:51.111Z,2.37
2018-05-07T12:33:18.616Z,2.00
2018-05-07T12:35:46.109Z,1.57
2018-05-07T12:38:13.649Z,1.80
2018-05-07T12:40:41.178Z,2.03
2018-05-07T12:43:08.675Z,1.90
2018-05-07T12:45:36.152Z,2.13
2018-05-07T12:48:04.502Z,3.00
2018-05-07T12:50:32.052Z,2.10
2018-05-07T12:52:59.587Z,2.40
2018-05-07T12:55:27.063Z,2.40
2018-05-07T12:57:54.657Z,2.93
2018-05-07T13:00:22.155Z,2.53
2018-05-07T13:02:49.654Z,3.37
2018-05-07T13:05:17.164Z,2.93
2018-05-07T13:07:45.415Z,3.53
2018-05-07T13:10:12.957Z,2.97
2018-05-07T13:12:40.752Z,2.87
2018-05-07T13:15:08.986Z,3.07
2018-05-07T13:17:36.449Z,3.20
2018-05-07T13:20:04.231Z,3.60
2018-05-07T13:22:31.722Z,3.60
2018-05-07T13:25:00.025Z,3.00
2018-05-07T13:27:27.555Z,3.27
2018-05-07T13:29:55.259Z,3.30
2018-05-07T13:32:22.776Z,3.60
2018-05-07T13:34:50.284Z,3.33
2018-05-07T13:37:17.795Z,3.50
2018-05-07T13:39:45.294Z,3.33
2018-05-07T13:42:12.810Z,3.80
2018-05-07T13:44:40.310Z,3.60
2018-05-07T13:47:07.850Z,4.27
2018-05-07T13:49:35.725Z,4.70
2018-05-07T13:52:03.207Z,4.10
2018-05-07T13:54:30.678Z,4.50
2018-05-07T13:56:58.541Z,4.43
2018-05-07T13:59:25.963Z,4.83
2018-05-07T14:01:53.439Z,3.87
2018-05-07T14:04:20.960Z,5.10
2018-05-07T14:06:48.452Z,4.97
2018-05-07T14:09:16.739Z,4.33
2018-05-07T14:11:44.482Z,4.60
2018-05-07T14:14:12.537Z,5.60
2018-05-07T14:16:40.188Z,5.40
2018-05-07T14:19:07.958Z,5.63
2018-05-07T14:21:35.468Z,5.57
2018-05-07T14:24:03.707Z,4.87
2018-05-07T14:26:31.606Z,4.73
2018-05-07T14:28:59.088Z,4.70
2018-05-07T14:31:26.594Z,4.40
2018-05-07T14:33:54.096Z,5.13
2018-05-07T14:36:30.500Z,5.03
2018-05-07T14:38:58.076Z,4.87
2018-05-07T14:41:25.677Z,5.20
2018-05-07T14:43:53.230Z,6.03
2018-05-07T14:46:21.814Z,5.47
2018-05-07T14:48:50.138Z,6.33
2018-05-07T14:51:17.640Z,6.30
2018-05-07T14:53:45.911Z,6.60
2018-05-07T14:56:13.394Z,6.20
2018-05-07T14:58:40.912Z,7.57
2018-05-07T15:01:08.718Z,6.83
2018-05-07T15:03:36.200Z,6.77
2018-05-07T15:06:05.007Z,6.33
2018-05-07T15:08:32.833Z,6.40
2018-05-07T15:11:00.332Z,6.40
2018-05-07T15:13:27.835Z,6.37
2018-05-07T15:15:55.666Z,7.80
2018-05-07T15:18:23.203Z,7.70
2018-05-07T15:20:50.681Z,6.60
2018-05-07T15:23:18.215Z,7.00
2018-05-07T15:25:45.674Z,7.20
2018-05-07T15:28:13.175Z,7.13
2018-05-07T15:30:40.698Z,7.80
2018-05-07T15:33:08.271Z,7.87
2018-05-07T15:35:35.829Z,8.53
2018-05-07T15:38:03.448Z,8.50
2018-05-07T15:40:31.017Z,8.67
2018-05-07T15:42:58.558Z,8.40
2018-05-07T15:45:26.088Z,7.57
2018-05-07T15:47:54.414Z,7.37
2018-05-07T15:50:21.926Z,6.90
2018-05-07T15:52:50.193Z,7.40
2018-05-07T15:55:17.687Z,7.70
2018-05-07T15:57:45.174Z,7.63
2018-05-07T16:00:12.982Z,8.67
2018-05-07T16:02:41.333Z,9.33
2018-05-07T16:05:08.810Z,8.83
2018-05-07T16:07:38.074Z,8.90
2018-05-07T16:10:05.608Z,10.10
2018-05-07T16:12:33.080Z,9.33
2018-05-07T16:15:00.611Z,8.13
2018-05-07T16:17:28.106Z,9.50
2018-05-07T16:19:55.656Z,9.13
2018-05-07T16:22:23.498Z,8.70
2018-05-07T16:24:50.923Z,9.17
2018-05-07T16:27:19.201Z,10.00
2018-05-07T16:29:47.494Z,8.40
2018-05-07T16:32:15.035Z,9.10
2018-05-07T16:34:43.262Z,9.93
2018-05-07T16:37:11.126Z,10.00
2018-05-07T16:39:38.705Z,14.57
2018-05-07T16:42:06.194Z,12.97
2018-05-07T16:44:33.694Z,10.27
2018-05-07T16:47:01.201Z,10.67
2018-05-07T16:49:28.685Z,9.03
2018-05-07T16:51:56.166Z,8.43
2018-05-07T16:54:23.711Z,8.13
2018-05-07T16:56:51.370Z,8.13
2018-05-07T16:59:18.922Z,9.20
2018-05-07T17:01:46.397Z,8.97
2018-05-07T17:04:14.374Z,11.70
2018-05-07T17:06:41.910Z,10.73
2018-05-07T17:09:09.513Z,9.40
2018-05-07T17:11:37.039Z,10.73
2018-05-07T17:14:04.593Z,10.70
2018-05-07T17:16:32.178Z,11.20
2018-05-07T17:18:59.731Z,12.67
2018-05-07T17:21:27.286Z,11.03
2018-05-07T17:23:54.840Z,13.03
2018-05-07T17:26:22.379Z,12.90
2018-05-07T17:28:49.903Z,11.50
2018-05-07T17:31:18.189Z,12.07
2018-05-07T17:33:46.496Z,12.00
2018-05-07T17:36:14.746Z,11.50
2018-05-07T17:38:43.011Z,11.40
2018-05-07T17:41:11.279Z,11.20
2018-05-07T17:43:38.779Z,12.10
2018-05-07T17:46:17.985Z,11.27
2018-05-07T17:48:57.310Z,11.17
2018-05-07T17:51:25.706Z,11.17
2018-05-07T17:53:53.213Z,10.90
2018-05-07T17:56:20.695Z,12.63
2018-05-07T17:58:48.174Z,13.03
2018-05-07T18:01:16.438Z,11.23
2018-05-07T18:03:44.214Z,12.17
2018-05-07T18:06:12.471Z,12.60
2018-05-07T18:08:40.743Z,11.70
2018-05-07T18:11:08.244Z,12.07
2018-05-07T18:13:35.735Z,11.70
2018-05-07T18:16:03.236Z,11.20
2018-05-07T18:18:31.792Z,11.60
2018-05-07T18:20:59.286Z,12.00
2018-05-07T18:23:26.834Z,11.23
2018-05-07T18:25:55.118Z,11.30
2018-05-07T18:28:22.613Z,13.10
2018-05-07T18:30:50.139Z,12.33
2018-05-07T18:33:17.869Z,12.50
2018-05-07T18:35:45.347Z,13.03
2018-05-07T18:38:13.587Z,12.10
2018-05-07T18:40:41.402Z,12.10
2018-05-07T18:43:08.883Z,11.57
2018-05-07T18:45:36.386Z,10.70
2018-05-07T18:48:04.966Z,10.77
2018-05-07T18:50:32.454Z,11.83
2018-05-07T18:52:59.953Z,11.50
2018-05-07T18:55:27.819Z,10.83
2018-05-07T18:57:55.302Z,11.43
2018-05-07T19:00:22.795Z,12.67
2018-05-07T19:02:50.574Z,12.80
2018-05-07T19:05:18.056Z,12.73
2018-05-07T19:07:45.534Z,11.77
2018-05-07T19:10:13.376Z,12.60
2018-05-07T19:12:40.858Z,12.60
2018-05-07T19:15:08.363Z,12.20
2018-05-07T19:17:35.854Z,13.33
2018-05-07T19:20:03.346Z,12.73
2018-05-07T19:22:31.621Z,12.87
2018-05-07T19:24:59.947Z,13.00
2018-05-07T19:27:30.863Z,12.27
2018-05-07T19:29:58.395Z,13.17
2018-05-07T19:32:25.882Z,11.60
2018-05-07T19:34:53.643Z,11.30
2018-05-07T19:37:21.190Z,12.73
2018-05-07T19:39:48.778Z,13.00
2018-05-07T19:42:16.261Z,12.13
2018-05-07T19:44:43.744Z,12.33
2018-05-07T19:47:11.246Z,11.60
2018-05-07T19:49:38.753Z,12.50
2018-05-07T19:52:06.365Z,11.43
2018-05-07T19:54:38.817Z,13.60
2018-05-07T19:57:06.373Z,13.00
2018-05-07T20:02:09.743Z,14.40
2018-05-07T20:04:37.282Z,13.80
2018-05-07T20:07:04.794Z,13.63
2018-05-07T20:09:33.178Z,12.70
2018-05-07T20:12:00.758Z,12.73
2018-05-07T20:14:28.287Z,13.63
2018-05-07T20:16:55.846Z,13.10
2018-05-07T20:19:23.436Z,14.10
2018-05-07T20:21:50.940Z,14.10
2018-05-07T20:24:19.526Z,15.17
2018-05-07T20:26:47.767Z,15.83
2018-05-07T20:29:15.274Z,16.27
2018-05-07T20:31:43.099Z,15.80
2018-05-07T20:34:10.600Z,15.83
2018-05-07T20:36:38.840Z,14.93
2018-05-07T20:39:06.629Z,15.90
2018-05-07T20:41:34.979Z,14.77
2018-05-07T20:44:02.465Z,15.10
2018-05-07T20:46:31.057Z,13.83
2018-05-07T20:48:58.546Z,14.17
2018-05-07T20:51:26.033Z,13.90
2018-05-07T20:53:53.558Z,14.30
2018-05-07T20:56:21.094Z,14.00
2018-05-07T20:58:48.614Z,14.47
2018-05-07T21:01:16.654Z,14.13
2018-05-07T21:03:44.023Z,14.53
2018-05-07T21:06:11.581Z,13.37
2018-05-07T21:08:39.089Z,14.60
2018-05-07T21:11:06.574Z,14.80
2018-05-07T21:13:34.186Z,14.47
2018-05-07T21:16:02.462Z,14.20
2018-05-07T21:18:30.742Z,13.70
2018-05-07T21:20:58.989Z,13.97
2018-05-07T21:23:26.594Z,14.13
2018-05-07T21:25:54.120Z,14.30
2018-05-07T21:28:21.590Z,13.80
2018-05-07T21:30:49.939Z,14.40
2018-05-07T21:33:17.457Z,14.60
2018-05-07T21:35:45.068Z,14.13
2018-05-07T21:38:13.070Z,14.50
2018-05-07T21:40:40.563Z,14.07
2018-05-07T21:43:08.099Z,14.57
2018-05-07T21:45:35.854Z,15.70
2018-05-07T21:48:03.331Z,14.90
2018-05-07T21:50:30.823Z,16.13
2018-05-07T21:52:58.625Z,15.60
2018-05-07T21:55:26.102Z,15.33
2018-05-07T21:57:53.581Z,16.43
2018-05-07T22:00:21.078Z,15.27
2018-05-07T22:02:48.552Z,14.93
2018-05-07T22:05:16.115Z,16.20
2018-05-07T22:07:43.938Z,15.57
2018-05-07T22:10:11.444Z,14.90
2018-05-07T22:12:38.959Z,14.57
2018-05-07T22:15:06.746Z,16.40
2018-05-07T22:17:35.061Z,14.57
2018-05-07T22:20:02.567Z,15.00
2018-05-07T22:22:30.387Z,15.30
2018-05-07T22:24:57.878Z,13.80
2018-05-07T22:27:25.362Z,14.93
2018-05-07T22:29:53.929Z,14.20
2018-05-07T22:32:21.426Z,14.90
2018-05-07T22:34:48.940Z,15.30
2018-05-07T22:37:16.970Z,15.30
2018-05-07T22:39:44.463Z,14.50
2018-05-07T22:42:12.010Z,15.07
2018-05-07T22:44:39.765Z,15.03
2018-05-07T22:47:07.262Z,15.83
2018-05-07T22:49:35.526Z,16.57
2018-05-07T22:52:03.318Z,15.60
2018-05-07T22:54:30.776Z,16.10
2018-05-07T22:56:58.306Z,15.97
2018-05-07T22:59:26.085Z,15.77
2018-05-07T23:01:54.330Z,13.53
2018-05-07T23:04:21.870Z,13.80
2018-05-07T23:06:49.686Z,13.10
2018-05-07T23:09:17.926Z,14.20
2018-05-07T23:11:45.501Z,12.20
2018-05-07T23:14:13.322Z,12.50
2018-05-07T23:16:40.795Z,11.90
2018-05-07T23:19:08.270Z,11.90
2018-05-07T23:21:36.156Z,11.37
2018-05-07T23:24:04.408Z,12.00
2018-05-07T23:26:31.902Z,11.80
2018-05-07T23:29:00.456Z,12.60
2018-05-07T23:31:27.948Z,12.20
2018-05-07T23:33:55.506Z,12.33
2018-05-07T23:36:23.218Z,12.10
2018-05-07T23:38:50.765Z,12.37
2018-05-07T23:41:18.278Z,11.40
2018-05-07T23:43:46.922Z,12.43
2018-05-07T23:46:14.420Z,13.13
2018-05-07T23:48:42.661Z,11.77
2018-05-07T23:51:10.623Z,11.40
2018-05-07T23:53:38.086Z,11.77
2018-05-07T23:56:05.699Z,11.00
2018-05-07T23:58:34.150Z,11.10
